Tawakoni's Hourly Summary for Monday, May 14, 2018
Hour Temp
(f)
RH
(%)
Solar Rad.
(MJ/m2)
Rainfall
(in)
Wind
(mph)
5/14/2018 12:00 AM 75 71 0 0 4.46
5/14/2018 1:00 AM 74 71 0 0 4.97
5/14/2018 2:00 AM 74 73 0 0 5.57
5/14/2018 3:00 AM 73 76 0 0 5.44
5/14/2018 4:00 AM 72 78 0 0 4.06
5/14/2018 5:00 AM 70 84 0 0 4.4
5/14/2018 6:00 AM 70 89 0 0 5.65
5/14/2018 7:00 AM 69 92 0.03 0 4.44
5/14/2018 8:00 AM 70 89 0.4 0 5.1
5/14/2018 9:00 AM 73 79 1.09 0 7.65
5/14/2018 10:00 AM 76 69 1.6 0 9.79
5/14/2018 11:00 AM 78 62 2.13 0 9.94
5/14/2018 12:00 PM 81 58 2.62 0 9.61
5/14/2018 1:00 PM 81 54 2.51 0 9.34
5/14/2018 2:00 PM 83 53 2.26 0 8.26
5/14/2018 3:00 PM 83 52 2.31 0 7.52
5/14/2018 4:00 PM 84 52 2.2 0 8.11
5/14/2018 5:00 PM 84 52 1.81 0 7.44
5/14/2018 6:00 PM 84 50 1.49 0 6.54
5/14/2018 7:00 PM 83 52 0.93 0 6.31
5/14/2018 8:00 PM 80 57 0.23 0 5.2
5/14/2018 9:00 PM 77 67 0 0 3.44
5/14/2018 10:00 PM 75 73 0 0 3.23
5/14/2018 11:00 PM 75 71 0 0 4.89
Data Summary 76 67 21.61 0.00 6.31